Tiempo atmosférico en la estación meteorológica de Valmadrid, Zaragoza (535 m.)



Fecha
DESCASC
Temp. máxima en grados centígrados (hora)
DESCASC
Temp. mínima en grados centígrados (hora)
DESCASC
Temp. media en grados centígrados
DESCASC
Racha de viento máxima en m/sg (hora)
DESCASC
Velocidad máxima media en intervalos de 10 minutos(hora)
DESCASC
Precipitaciones diarias en mm
DESCASC
Precipitaciones de 00:00 a 06:00 en mm
DESCASC
Precipitaciones de 06:00 a 12:00 en mm
DESCASC
Precipitaciones de 12:00 a 18:00 en mm
DESCASC
Precipitaciones de 18:00 a 24:00 en mm
DESCASC
14-12-2019 13.7 (14:20) 8.6 (21:10) 11.2 18.33 (03:00) 10.83 (03:10) 0 0 0 0 0
13-12-2019 15.6 (12:50) 11 (00:00) 13.3 21.67 (06:20) 13.61 (12:50) 0.4 0.4 0 0 0
12-12-2019 11.6 (22:50) 5.8 (01:20) 8.7 18.33 (21:30) 11.39 (21:00) 4 0 0 2.8 1.2
11-12-2019 11.6 (00:00) 6 (00:00) 8.8 17.78 (15:20) 12.5 (15:20) 1.6 0 0.6 1 0
10-12-2019 13.7 (14:50) 6.2 (09:30) 9.9 18.06 (09:20) 13.33 (09:50) 0 0 0 0 0
09-12-2019 12.1 (13:00) 5.8 (08:50) 9 22.22 (19:50) 15 (19:50) 0 0 0 0 0
08-12-2019 14.4 (14:50) 6.9 (00:00) 10.6 15 (21:50) 10.83 (22:20) 1.4 0 0 0.4 1
07-12-2019 13.9 (14:10) 3.3 (00:00) 8.6 7.22 (11:10) 5.28 (11:10) 0 0 0 0 0
06-12-2019 14.2 (14:30) 4.6 (00:00) 9.4 4.72 (00:50) 3.33 (22:20) 0 0 0 0 0
05-12-2019 9 (20:20) 5.4 (00:00) 7.2 10.28 (02:10) 6.94 (03:20) 6.4 3.4 3 0 0
04-12-2019 7.5 (19:30) 4 (00:10) 5.8 11.39 (21:30) 7.78 (21:30) 8.8 0 0 5.4 3.4
03-12-2019 6.4 (14:50) 0.6 (00:00) 3.5 14.17 (07:50) 8.89 (01:20) 0 0 0 0 0
02-12-2019 11 (14:30) 3.7 (00:00) 7.4 16.11 (21:50) 11.11 (20:40) 0 0 0 0 0
01-12-2019 12.4 (13:20) 4.3 (00:00) 8.3 9.44 (05:30) 6.67 (04:30) 1.4 1.4 0 0 0
30-11-2019 18.9 (14:50) 6.2 (00:00) 12.5 13.33 (17:50) 9.44 (20:40) 1.2 0 0 0 1.2
29-11-2019 15.2 (12:10) 6.3 (00:00) 10.8 11.39 (04:40) 7.22 (04:50) 0 0 0 0 0
28-11-2019 16.7 (13:50) 10.8 (02:10) 13.8 15.56 (13:20) 10 (12:20) 0.2 0 0 0 0.2
27-11-2019 15.8 (01:00) 10.9 (00:00) 13.3 18.61 (09:00) 11.39 (09:00) 0 0 0 0 0
26-11-2019 19 (14:10) 9.9 (00:00) 14.4 12.5 (02:20) 8.06 (21:20) 0 0 0 0 0
25-11-2019 16.4 (14:20) 7.7 (05:40) 12 14.72 (10:10) 10 (11:30) 0.8 0.6 0.2 0 0
24-11-2019 11.3 (15:20) 4.9 (00:00) 8.1 14.44 (15:30) 9.72 (15:30) 0 0 0 0 0
23-11-2019 11.3 (15:40) 6.2 (00:00) 8.8 17.78 (07:40) 11.94 (07:20) 2.2 0.4 1.8 0 0
22-11-2019 10.6 (21:30) 3.7 (00:00) 7.2 14.44 (22:00) 7.22 (22:00) 3 0 0 1.4 1.6
21-11-2019 12 (12:20) 3.4 (00:00) 7.7 8.33 (11:20) 5.28 (11:30) 0 0 0 0 0
20-11-2019 11 (11:40) 1.7 (00:00) 6.4 6.67 (21:30) 4.17 (21:30) 0.4 0 0 0 0.4
19-11-2019 10.5 (14:30) 1.7 (00:00) 6.1 15 (07:10) 10.83 (07:20) 0 0 0 0 0
18-11-2019 8.1 (14:20) 4.1 (00:00) 6.1 19.44 (18:30) 12.5 (05:50) 2 2 0 0 0
17-11-2019 11.1 (14:00) 4.6 (00:00) 7.9 17.22 (10:00) 8.61 (10:40) 1.8 0 0 1.8 0
16-11-2019 10.1 (13:40) 2.2 (00:00) 6.2 14.44 (06:00) 9.72 (06:00) 0 0 0 0 0

Gráficas

Temp. máximas Temp. mínimas Temp. medias Precipitaciones Rachas de viento máximas Velocidades máximas media en intervalos de 10 minutos

Datos horarios

Fecha y hora oficial Temperatura (ºC) Velocidad del viento (km/h) Dirección del viento Racha (km/h) Dirección de racha Precipitación (mm) Presión (hPa) Tendencia (hPa) Humedad (%)
2019-12-15 23:00:00 6.3 8 Sudeste 13 Sudeste 0 -- -- 82
2019-12-15 22:00:00 7.8 8 Sudeste 12 Sudeste 0 -- -- 75
2019-12-15 21:00:00 7.4 5 Sudeste 15 Sudoeste 0 -- -- 76
2019-12-15 20:00:00 7.3 4 Sur 10 Sudeste 0 -- -- 78
2019-12-15 19:00:00 7.1 5 Sudeste 12 Sudeste 0 -- -- 81
2019-12-15 18:00:00 8.4 2 Este 8 Oeste 0 -- -- 75
2019-12-15 17:00:00 10.7 4 Noroeste 14 Oeste 0 -- -- 66
2019-12-15 16:00:00 13.5 10 Oeste 17 Oeste 0 -- -- 53
2019-12-15 15:00:00 14 9 Sudoeste 26 Sudoeste 0 -- -- 50
2019-12-15 14:00:00 14.4 10 Sudoeste 30 Sur 0 -- -- 51
2019-12-15 13:00:00 13.3 19 Sudoeste 35 Sudoeste 0 -- -- 54
2019-12-15 12:00:00 13.4 10 Sudoeste 21 Sur 0 -- -- 56
2019-12-15 11:00:00 13 8 Sudoeste 22 Sudoeste 0 -- -- 57
2019-12-15 10:00:00 11 13 Sudoeste 22 Sudoeste 0 -- -- 65
2019-12-15 09:00:00 7.6 9 Sudoeste 17 Sudoeste 0 -- -- 79
2019-12-15 08:00:00 6.5 11 Sur 14 Sudoeste 0 -- -- 82
2019-12-15 07:00:00 10 8 Sur 37 Sudoeste 0 -- -- 66
2019-12-15 06:00:00 9.7 6 Sur 21 Sudeste 0 -- -- 68
2019-12-15 05:00:00 9.5 6 Sudeste 27 Sudoeste 0 -- -- 69
2019-12-15 04:00:00 9.1 8 Este 35 Oeste 0 -- -- 72
2019-12-15 03:00:00 10.7 13 Sudoeste 45 Sudoeste 0 -- -- 64
2019-12-15 02:00:00 10.2 9 Sur 22 Sudoeste 0 -- -- 65
2019-12-15 01:00:00 8.5 9 Sudeste 22 Sudoeste 0 -- -- 73
2019-12-15 00:00:00 10.4 12 Sudoeste 31 Oeste 0 -- -- 64
2019-12-14 23:00:00 10.8 16 Oeste 30 Oeste 0 -- -- 64
2019-12-14 22:00:00 9.5 8 Sudeste 18 Sudeste 0 -- -- 68
2019-12-14 21:00:00 9.7 4 Sur 17 Sudeste 0 -- -- 66
2019-12-14 20:00:00 10.6 8 Sudeste 22 Sur 0 -- -- 62
2019-12-14 19:00:00 11.1 9 Sudoeste 23 Sudoeste 0 -- -- 59
2019-12-14 18:00:00 11.2 9 Sur 27 Oeste 0 -- -- 61
2019-12-14 17:00:00 12.3 19 Oeste 34 Oeste 0 -- -- 57
2019-12-14 16:00:00 13.3 23 Sudoeste 55 Sudoeste 0 -- -- 51
2019-12-14 15:00:00 13.4 27 Oeste 52 Sudoeste 0 -- -- 53
2019-12-14 14:00:00 13.2 32 Oeste 48 Sudoeste 0 -- -- 55
2019-12-14 13:00:00 12.7 24 Sudoeste 46 Oeste 0 -- -- 57
2019-12-14 12:00:00 12.6 23 Sudoeste 45 Oeste 0 -- -- 57
2019-12-14 11:00:00 12.3 26 Sudoeste 48 Sudoeste 0 -- -- 59
2019-12-14 10:00:00 11.2 26 Oeste 53 Sudoeste 0 -- -- 64
2019-12-14 09:00:00 10.7 26 Oeste 45 Sudoeste 0 -- -- 65
2019-12-14 08:00:00 10.3 18 Oeste 31 Sudoeste 0 -- -- 66
2019-12-14 07:00:00 10 13 Oeste 32 Noroeste 0 -- -- 67
2019-12-14 06:00:00 10.5 22 Oeste 38 Oeste 0 -- -- 67
2019-12-14 05:00:00 11.4 22 Oeste 46 Sudoeste 0 -- -- 65
2019-12-14 04:00:00 11.9 16 Sudoeste 60 Sudoeste 0 -- -- 62
2019-12-14 03:00:00 12.5 37 Oeste 66 Sudoeste 0 -- -- 62
2019-12-14 02:00:00 12.2 28 Oeste 53 Sudoeste 0 -- -- 65
2019-12-14 01:00:00 12.7 34 Oeste 53 Sudoeste 0 -- -- 64
2019-12-14 00:00:00 12.8 27 Oeste 58 Sudoeste 0 -- -- 64
2019-12-13 23:00:00 13.2 31 Oeste 51 Oeste 0 -- -- 64
2019-12-13 22:00:00 13.7 30 Oeste 57 Oeste 0 -- -- 64
2019-12-13 21:00:00 14 35 Oeste 65 Sudoeste 0 -- -- 65
2019-12-13 20:00:00 14.7 34 Oeste 57 Sudoeste 0 -- -- 65
2019-12-13 19:00:00 14.7 28 Oeste 53 Oeste 0 -- -- 65
2019-12-13 18:00:00 15.1 31 Oeste 55 Sudoeste 0 -- -- 64
2019-12-13 17:00:00 15.5 29 Oeste 45 Oeste 0 -- -- 62
2019-12-13 16:00:00 15.1 28 Oeste 49 Oeste 0 -- -- 63
2019-12-13 15:00:00 14.8 30 Oeste 59 Oeste 0 -- -- 63
2019-12-13 14:00:00 14.8 32 Oeste 71 Oeste 0 -- -- 63
2019-12-13 13:00:00 15.2 47 Oeste 78 Sudoeste 0 -- -- 60
2019-12-13 12:00:00 14.7 34 Oeste 66 Sudoeste 0 -- -- 62
2019-12-13 11:00:00 14.3 35 Oeste 60 Sudoeste 0 -- -- 63
2019-12-13 10:00:00 14 34 Oeste 69 Sudoeste 0 -- -- 65
2019-12-13 09:00:00 14.1 35 Oeste 75 Oeste 0 -- -- 65
2019-12-13 08:00:00 14.2 42 Oeste 71 Oeste 0 -- -- 66
2019-12-13 07:00:00 14.4 41 Oeste 78 Sudoeste 0 -- -- 66
2019-12-13 06:00:00 14.1 39 Oeste 67 Sudoeste 0 -- -- 69
2019-12-13 05:00:00 14.1 40 Oeste 66 Oeste 0 -- -- 69
2019-12-13 04:00:00 13.7 35 Oeste 61 Sudoeste 0 -- -- 71
2019-12-13 03:00:00 13.5 37 Oeste 71 Sudoeste 0 -- -- 71
2019-12-13 02:00:00 12.6 38 Oeste 62 Sudoeste 0.2 -- -- 76
2019-12-13 01:00:00 11.6 28 Oeste 58 Oeste 0.2 -- -- 82
2019-12-13 00:00:00 11 31 Oeste 66 Sudoeste 0.4 -- -- 84
2019-12-12 23:00:00 11.6 36 Oeste 61 Sudoeste 0 -- -- 74
2019-12-12 22:00:00 10.8 31 Oeste 66 Oeste 0 -- -- 75
2019-12-12 21:00:00 9.8 41 Oeste 63 Oeste 0.2 -- -- 78
2019-12-12 20:00:00 8.7 27 Oeste 50 Sudoeste 0.2 -- -- 82
2019-12-12 19:00:00 8.3 28 Oeste 49 Oeste 0.4 -- -- 81
2019-12-12 18:00:00 7.8 22 Sudoeste 50 Sudoeste 0.4 -- -- 78
2019-12-12 17:00:00 7.5 20 Sudoeste 44 Sudoeste 0.6 -- -- 80
2019-12-12 16:00:00 7.6 23 Sudoeste 44 Sudoeste 1.8 -- -- 79
2019-12-12 15:00:00 9 24 Sudoeste 42 Sudoeste 0 -- -- 68
2019-12-12 14:00:00 9.5 24 Oeste 47 Oeste 0 -- -- 64
2019-12-12 13:00:00 9.4 23 Oeste 56 Oeste 0 -- -- 64
2019-12-12 12:00:00 9.6 31 Oeste 54 Sudoeste 0 -- -- 61
2019-12-12 11:00:00 9.3 24 Oeste 54 Oeste 0 -- -- 63
2019-12-12 10:00:00 8.1 26 Oeste 53 Oeste 0 -- -- 68
2019-12-12 09:00:00 7 33 Oeste 55 Oeste 0 -- -- 71
2019-12-12 08:00:00 6.7 32 Oeste 51 Sudoeste 0 -- -- 72
2019-12-12 07:00:00 6.6 26 Sudoeste 45 Oeste 0 -- -- 70
2019-12-12 06:00:00 6.2 17 Sudoeste 45 Oeste 0 -- -- 72
2019-12-12 05:00:00 6.2 25 Sudoeste 52 Oeste 0 -- -- 72
2019-12-12 04:00:00 5.9 19 Sudoeste 46 Sudoeste 0 -- -- 72
2019-12-12 03:00:00 6.1 33 Oeste 54 Oeste 0 -- -- 71
2019-12-12 02:00:00 6 32 Oeste 48 Sudoeste 0 -- -- 69
2019-12-12 01:00:00 5.9 27 Oeste 44 Sudoeste 0 -- -- 69
2019-12-12 00:00:00 6.4 24 Oeste 45 Noroeste 0 -- -- 66
2019-12-11 23:00:00 6.7 26 Oeste 41 Sudoeste 0 -- -- 64
2019-12-11 22:00:00 7 26 Oeste 49 Sudoeste 0 -- -- 64
2019-12-11 21:00:00 6.8 23 Sudoeste 37 Sudoeste 0 -- -- 67
2019-12-11 20:00:00 6.3 16 Oeste 36 Oeste 0 -- -- 73
2019-12-11 19:00:00 6.7 27 Oeste 49 Oeste 0 -- -- 70
2019-12-11 18:00:00 6.5 26 Oeste 48 Oeste 0 -- -- 73
2019-12-11 17:00:00 7 29 Oeste 44 Oeste 0 -- -- 75
2019-12-11 16:00:00 7.5 32 Noroeste 64 Oeste 0 -- -- 76
2019-12-11 15:00:00 7.4 31 Oeste 50 Noroeste 0 -- -- 87
2019-12-11 14:00:00 6.6 15 Oeste 31 Sudoeste 1 -- -- 93
2019-12-11 13:00:00 6.8 16 Oeste 40 Noroeste 0 -- -- 86
2019-12-11 12:00:00 6.5 27 Oeste 46 Oeste 0.6 -- -- 89
2019-12-11 11:00:00 9.3 35 Oeste 49 Oeste 0 -- -- 53
2019-12-11 10:00:00 10.5 31 Oeste 54 Sudoeste 0 -- -- 40
2019-12-11 09:00:00 9.8 30 Oeste 54 Oeste 0 -- -- 43
2019-12-11 08:00:00 10.4 31 Oeste 51 Oeste 0 -- -- 39
2019-12-11 07:00:00 11.5 30 Oeste 53 Sudoeste 0 -- -- 34
2019-12-11 06:00:00 10.7 15 Sudoeste 51 Oeste 0 -- -- 37
2019-12-11 05:00:00 10.4 31 Oeste 42 Oeste 0 -- -- 41
2019-12-11 04:00:00 10.9 24 Sudoeste 42 Oeste 0 -- -- 39
2019-12-11 03:00:00 10.5 14 Sudoeste 31 Sudoeste 0 -- -- 44
2019-12-11 02:00:00 10.9 19 Sudoeste 36 Sudoeste 0 -- -- 43
2019-12-11 01:00:00 10.9 24 Sudoeste 43 Sudoeste 0 -- -- 46
2019-12-11 00:00:00 11.6 29 Sudoeste 41 Oeste 0 -- -- 39
2019-12-10 23:00:00 10.8 19 Sudoeste 33 Sudoeste 0 -- -- 42
2019-12-10 22:00:00 11.4 23 Sudoeste 35 Sudoeste 0 -- -- 42
2019-12-10 21:00:00 11.3 12 Sudoeste 24 Sudoeste 0 -- -- 47
2019-12-10 20:00:00 10.6 8 Sur 19 Sudoeste 0 -- -- 54
2019-12-10 19:00:00 11 7 Sudeste 41 Sudoeste 0 -- -- 52
2019-12-10 18:00:00 11.9 23 Oeste 44 Oeste 0 -- -- 48
2019-12-10 17:00:00 12.7 16 Oeste 30 Oeste 0 -- -- 44
2019-12-10 16:00:00 13.5 12 Oeste 40 Oeste 0 -- -- 42
2019-12-10 15:00:00 13.6 25 Oeste 40 Oeste 0 -- -- 40
2019-12-10 14:00:00 12.9 25 Oeste 52 Oeste 0 -- -- 41
2019-12-10 13:00:00 11.8 33 Oeste 58 Oeste 0 -- -- 43
2019-12-10 12:00:00 9.7 38 Oeste 61 Sudoeste 0 -- -- 52
2019-12-10 11:00:00 7.8 40 Oeste 63 Oeste 0 -- -- 62
2019-12-10 10:00:00 7.4 40 Oeste 65 Oeste 0 -- -- 64
2019-12-10 09:00:00 6.6 45 Oeste 60 Sudoeste 0 -- -- 68
2019-12-10 08:00:00 6.7 35 Oeste 55 Sudoeste 0 -- -- 69
2019-12-10 07:00:00 6.6 39 Oeste 55 Oeste 0 -- -- 69
2019-12-10 06:00:00 6.8 34 Oeste 55 Sudoeste 0 -- -- 69
2019-12-10 05:00:00 7.3 27 Oeste 51 Oeste 0 -- -- 68
2019-12-10 04:00:00 7.1 20 Oeste 42 Noroeste 0 -- -- 69
2019-12-10 03:00:00 7.5 20 Oeste 31 Oeste 0 -- -- 68
2019-12-10 02:00:00 7.5 10 Oeste 46 Oeste 0 -- -- 68
2019-12-10 01:00:00 7.8 25 Oeste 51 Oeste 0 -- -- 69
2019-12-10 00:00:00 7.9 24 Oeste 51 Oeste 0 -- -- 66
2019-12-09 23:00:00 7.6 28 Noroeste 56 Oeste 0 -- -- 68
2019-12-09 22:00:00 7.7 23 Oeste 52 Oeste 0 -- -- 75
2019-12-09 21:00:00 7.9 35 Oeste 64 Oeste 0 -- -- 74
2019-12-09 20:00:00 8.5 49 Oeste 80 Oeste 0 -- -- 72
2019-12-09 19:00:00 8.6 38 Oeste 55 Oeste 0 -- -- 75
2019-12-09 18:00:00 8.7 27 Oeste 50 Noroeste 0 -- -- 77
2019-12-09 17:00:00 9.4 34 Noroeste 62 Noroeste 0 -- -- 71
2019-12-09 16:00:00 10.1 44 Oeste 70 Noroeste 0 -- -- 67
2019-12-09 15:00:00 11.4 49 Noroeste 73 Noroeste 0 -- -- 62
2019-12-09 14:00:00 11.4 47 Noroeste 71 Oeste 0 -- -- 61
2019-12-09 13:00:00 12.1 40 Oeste 64 Oeste 0 -- -- 56
2019-12-09 12:00:00 11.1 31 Oeste 48 Oeste 0 -- -- 58
2019-12-09 11:00:00 9.5 26 Oeste 44 Oeste 0 -- -- 64
2019-12-09 10:00:00 7.8 28 Oeste 49 Oeste 0 -- -- 70
2019-12-09 09:00:00 5.8 25 Oeste 46 Oeste 0 -- -- 81
2019-12-09 08:00:00 6.5 29 Oeste 47 Oeste 0 -- -- 78
2019-12-09 07:00:00 6.5 18 Oeste 38 Sudoeste 0 -- -- 79
2019-12-09 06:00:00 7.4 28 Oeste 41 Sudoeste 0 -- -- 78
2019-12-09 05:00:00 6.7 23 Oeste 44 Oeste 0 -- -- 85
2019-12-09 04:00:00 6.9 22 Oeste 38 Oeste 0 -- -- 88
2019-12-09 03:00:00 7.7 14 Oeste 42 Sudoeste 0 -- -- 90
2019-12-09 02:00:00 8.4 15 Sudoeste 37 Oeste 0 -- -- 87
2019-12-09 01:00:00 8.3 19 Oeste 41 Sudoeste 0 -- -- 91
2019-12-09 00:00:00 8.3 13 Oeste 42 Oeste 0 -- -- 91
2019-12-08 23:00:00 9.3 33 Oeste 51 Oeste 0 -- -- 90
2019-12-08 22:00:00 9.6 33 Oeste 54 Oeste 0 -- -- 90
2019-12-08 21:00:00 9.8 18 Oeste 41 Sudoeste 0.2 -- -- 92
2019-12-08 20:00:00 9.3 30 Sudoeste 43 Oeste 0.2 -- -- 93
2019-12-08 19:00:00 8.8 27 Oeste 35 Sudoeste 0.6 -- -- 92
2019-12-08 18:00:00 8.6 15 Oeste 27 Oeste 0.4 -- -- 88
2019-12-08 17:00:00 10.2 18 Oeste 36 Oeste 0 -- -- 74
2019-12-08 16:00:00 13.5 19 Oeste 28 Oeste 0 -- -- 64
2019-12-08 15:00:00 14.1 19 Oeste 33 Oeste 0 -- -- 59
2019-12-08 14:00:00 13.5 23 Oeste 41 Oeste 0 -- -- 59
2019-12-08 13:00:00 12.8 26 Oeste 39 Oeste 0 -- -- 61
2019-12-08 12:00:00 11.7 29 Oeste 51 Oeste 0 -- -- 63
2019-12-08 11:00:00 11 27 Oeste 41 Oeste 0 -- -- 64
2019-12-08 10:00:00 10.1 17 Oeste 35 Oeste 0 -- -- 66
2019-12-08 09:00:00 9.1 26 Sudoeste 37 Sudoeste 0 -- -- 71
2019-12-08 08:00:00 9.1 21 Sudoeste 32 Oeste 0 -- -- 71
2019-12-08 07:00:00 7.6 5 Sudeste 24 Sudoeste 0 -- -- 78
2019-12-08 06:00:00 8.6 13 Sudoeste 28 Sudoeste 0 -- -- 72
2019-12-08 05:00:00 7.3 12 Sur 17 Sur 0 -- -- 79
2019-12-08 04:00:00 7.3 11 Sur 19 Sudoeste 0 -- -- 81
2019-12-08 03:00:00 8.2 13 Sudoeste 21 Sudoeste 0 -- -- 79
2019-12-08 02:00:00 8 14 Oeste 19 Sudoeste 0 -- -- 81
2019-12-08 01:00:00 7.5 6 Oeste 21 Oeste 0 -- -- 85
2019-12-08 00:00:00 8.4 9 Sudoeste 19 Oeste 0 -- -- 80
2019-12-07 23:00:00 7 3 Sudeste 12 Sudeste 0 -- -- 85
2019-12-07 22:00:00 6.5 9 Sudeste 13 Sudeste 0 -- -- 89
2019-12-07 21:00:00 6.1 2 Sudeste 12 Sudeste 0 -- -- 89
2019-12-07 20:00:00 7.5 7 Sudeste 10 Sur 0 -- -- 86
2019-12-07 19:00:00 8.8 6 Sudoeste 17 Sudoeste 0 -- -- 80
2019-12-07 18:00:00 9.7 6 Sudoeste 13 Oeste 0 -- -- 77
2019-12-07 17:00:00 11.3 5 Oeste 12 Oeste 0 -- -- 71
2019-12-07 16:00:00 13 9 Oeste 18 Oeste 0 -- -- 63
2019-12-07 15:00:00 13.1 12 Oeste 17 Oeste 0 -- -- 64
2019-12-07 14:00:00 13.5 7 Oeste 17 Oeste 0 -- -- 62
2019-12-07 13:00:00 12.8 9 Oeste 17 Oeste 0 -- -- 63
2019-12-07 12:00:00 11.5 13 Oeste 26 Oeste 0 -- -- 70
2019-12-07 11:00:00 10.2 17 Oeste 23 Oeste 0 -- -- 74
2019-12-07 10:00:00 9.8 5 Sudoeste 17 Sudoeste 0 -- -- 74
2019-12-07 09:00:00 6.5 9 Sudoeste 17 Sudoeste 0 -- -- 88
2019-12-07 08:00:00 3.3 8 Sudeste 12 Sudeste 0 -- -- 95
2019-12-07 07:00:00 4.6 2 Noroeste 12 Sudeste 0 -- -- 93
2019-12-07 06:00:00 5.6 10 Sudeste 16 Sudeste 0 -- -- 92
2019-12-07 05:00:00 5.4 5 Este 15 Sudeste 0 -- -- 95
2019-12-07 04:00:00 5.5 6 Este 15 Sudoeste 0 -- -- 92
2019-12-07 03:00:00 5.3 8 Sudeste 13 Sudeste 0 -- -- 92
2019-12-07 02:00:00 4.6 3 Sudeste 13 Sudeste 0 -- -- 94
2019-12-07 01:00:00 4.8 4 Sur 12 Sudeste 0 -- -- 97
2019-12-07 00:00:00 4.8 9 Sudeste 16 Sudeste 0 -- -- 97
2019-12-06 23:00:00 5 7 Sudeste 14 Sudeste 0 -- -- 96
2019-12-06 22:00:00 5.5 9 Sudeste 10 Sudeste 0 -- -- 95
2019-12-06 21:00:00 5.9 9 Sudeste 12 Sudeste 0 -- -- 96
2019-12-06 20:00:00 7.2 6 Sudeste 9 Sudeste 0 -- -- 95
2019-12-06 19:00:00 7.1 4 Sudeste 10 Sur 0 -- -- 94
2019-12-06 18:00:00 8.5 6 Sur 11 Sudeste 0 -- -- 89
2019-12-06 17:00:00 10.3 8 Sudeste 13 Este 0 -- -- 83
2019-12-06 16:00:00 12.6 6 Este 12 Sudeste 0 -- -- 72
2019-12-06 15:00:00 12.4 6 Este 13 Este 0 -- -- 70
2019-12-06 14:00:00 13.2 6 Nordeste 13 Nordeste 0 -- -- 66
2019-12-06 13:00:00 12.1 7 Sudeste 13 Sudeste 0 -- -- 70
2019-12-06 12:00:00 12.2 5 Norte 10 Norte 0 -- -- 69
2019-12-06 11:00:00 10.6 5 Norte 13 Norte 0 -- -- 72
2019-12-06 10:00:00 11.1 4 Sudeste 10 Sudeste 0 -- -- 69
2019-12-06 09:00:00 7.2 8 Sudeste 11 Sudeste 0 -- -- 83
2019-12-06 08:00:00 7.3 2 Sudeste 17 Oeste 0 -- -- 82
2019-12-06 07:00:00 7 4 Sur 14 Sur 0 -- -- 84
2019-12-06 06:00:00 7.3 4 Sudeste 11 Sudeste 0 -- -- 83
2019-12-06 05:00:00 7.4 5 Sudeste 12 Sudoeste 0 -- -- 82
2019-12-06 04:00:00 7.2 4 Sur 9 Sudeste 0 -- -- 84
2019-12-06 03:00:00 7.2 3 Este 16 Este 0 -- -- 84
2019-12-06 02:00:00 7.5 5 Este 14 Sudoeste 0 -- -- 80
2019-12-06 01:00:00 7.9 4 Oeste 17 Oeste 0 -- -- 78
2019-12-06 00:00:00 7.9 4 Sudeste 21 Oeste 0 -- -- 80
2019-12-05 23:00:00 8.3 15 Oeste 30 Oeste 0 -- -- 77
2019-12-05 22:00:00 8.6 16 Oeste 26 Oeste 0 -- -- 77
2019-12-05 21:00:00 9 3 Norte 22 Noroeste 0 -- -- 73
2019-12-05 20:00:00 8.3 4 Este 7 Norte 0 -- -- 83
2019-12-05 19:00:00 8.4 0 Calma 10 Sudeste 0 -- -- 83
2019-12-05 18:00:00 8.6 5 Este 14 Oeste 0 -- -- 82
2019-12-05 17:00:00 8.5 3 Norte 14 Noroeste 0 -- -- 87
2019-12-05 16:00:00 8.7 7 Oeste 28 Oeste 0 -- -- 87
2019-12-05 15:00:00 7.9 14 Oeste 28 Sudoeste 0 -- -- 90
2019-12-05 14:00:00 7.4 19 Oeste 31 Oeste 0 -- -- 91
2019-12-05 13:00:00 6.6 17 Oeste 32 Oeste 0 -- -- 93
2019-12-05 12:00:00 6.5 17 Oeste 27 Oeste 0 -- -- 92
2019-12-05 11:00:00 6.3 4 Sudeste 12 Este 0.4 -- -- 94
2019-12-05 10:00:00 5.7 3 Este 10 Sudeste 0.4 -- -- 96
2019-12-05 09:00:00 5.7 4 Nordeste 12 Sudeste 0.2 -- -- 95
2019-12-05 08:00:00 5.6 4 Nordeste 11 Oeste 1 -- -- 97
2019-12-05 07:00:00 5.6 6 Norte 13 Norte 1 -- -- 97
2019-12-05 06:00:00 5.9 2 Este 9 Noroeste 0.4 -- -- 98
2019-12-05 05:00:00 6.1 5 Noroeste 12 Oeste 0.6 -- -- 98
2019-12-05 04:00:00 6.1 12 Oeste 34 Noroeste 0.8 -- -- 97
2019-12-05 03:00:00 6.1 18 Oeste 37 Noroeste 0.8 -- -- 96
2019-12-05 02:00:00 6.3 18 Noroeste 34 Oeste 0.2 -- -- 94
2019-12-05 01:00:00 6.5 6 Noroeste 33 Oeste 0.6 -- -- 93
2019-12-05 00:00:00 6.2 24 Oeste 33 Oeste 0.4 -- -- 93
2019-12-04 23:00:00 6.2 21 Oeste 32 Noroeste 0.4 -- -- 93
2019-12-04 22:00:00 6.8 11 Noroeste 41 Oeste 0 -- -- 88
2019-12-04 21:00:00 7.4 21 Oeste 31 Oeste 0.6 -- -- 87
2019-12-04 20:00:00 7.4 24 Oeste 32 Oeste 0.4 -- -- 89
2019-12-04 19:00:00 6.8 4 Este 12 Nordeste 1.6 -- -- 92
2019-12-04 18:00:00 7 4 Sudoeste 16 Sur 0.4 -- -- 88
2019-12-04 17:00:00 6.5 9 Sur 27 Oeste 0.2 -- -- 92
2019-12-04 16:00:00 6.3 4 Sur 18 Oeste 0.8 -- -- 93
2019-12-04 15:00:00 6.4 6 Noroeste 21 Noroeste 1.8 -- -- 93
2019-12-04 14:00:00 6.2 11 Noroeste 17 Noroeste 1.6 -- -- 92
2019-12-04 13:00:00 6 3 Sur 9 Sudeste 0.6 -- -- 90
2019-12-04 12:00:00 5.4 6 Sudeste 18 Oeste 0 -- -- 87
2019-12-04 11:00:00 5.8 14 Oeste 30 Oeste 0 -- -- 76
2019-12-04 10:00:00 5.7 5 Oeste 18 Sudoeste 0 -- -- 76
2019-12-04 09:00:00 5 2 Sudeste 10 Sur 0 -- -- 80
2019-12-04 08:00:00 4.7 5 Sudeste 27 Oeste 0 -- -- 80
2019-12-04 07:00:00 4.5 18 Oeste 31 Oeste 0 -- -- 80
2019-12-04 06:00:00 4.5 11 Oeste 24 Oeste 0 -- -- 81
2019-12-04 05:00:00 4.4 13 Oeste 26 Oeste 0 -- -- 82
2019-12-04 04:00:00 4.2 17 Oeste 23 Sudoeste 0 -- -- 84
2019-12-04 03:00:00 4.2 15 Oeste 22 Oeste 0 -- -- 83
2019-12-04 02:00:00 4 14 Oeste 22 Sudoeste 0 -- -- 85
2019-12-04 01:00:00 4.1 4 Este 13 Sudoeste 0 -- -- 87
2019-12-04 00:00:00 4.1 2 Este 9 Oeste 0 -- -- 86
2019-12-03 23:00:00 4.1 5 Sudoeste 8 Oeste 0 -- -- 85
2019-12-03 22:00:00 3.3 4 Sur 6 Sudeste 0 -- -- 89
2019-12-03 21:00:00 2.7 5 Sudeste 8 Sudeste 0 -- -- 90
2019-12-03 20:00:00 0.8 6 Sudeste 12 Sudeste 0 -- -- 94
2019-12-03 19:00:00 0.9 3 Sudeste 8 Sudeste 0 -- -- 91
2019-12-03 18:00:00 2.2 4 Oeste 7 Oeste 0 -- -- 89
2019-12-03 17:00:00 4.5 4 Noroeste 10 Noroeste 0 -- -- 80
2019-12-03 16:00:00 5.3 6 Noroeste 17 Noroeste 0 -- -- 76
2019-12-03 15:00:00 6.3 12 Noroeste 21 Oeste 0 -- -- 70
2019-12-03 14:00:00 6 10 Noroeste 19 Noroeste 0 -- -- 71
2019-12-03 13:00:00 5.5 14 Noroeste 20 Noroeste 0 -- -- 74
2019-12-03 12:00:00 5.3 14 Oeste 22 Oeste 0 -- -- 74
2019-12-03 11:00:00 4.9 17 Oeste 30 Noroeste 0 -- -- 74
2019-12-03 10:00:00 3.7 21 Oeste 37 Oeste 0 -- -- 80
2019-12-03 09:00:00 3.1 24 Oeste 48 Oeste 0 -- -- 82
2019-12-03 08:00:00 2.8 29 Oeste 51 Oeste 0 -- -- 84
2019-12-03 07:00:00 2.9 26 Oeste 36 Oeste 0 -- -- 85
2019-12-03 06:00:00 2.8 23 Oeste 37 Oeste 0 -- -- 83
2019-12-03 05:00:00 2.6 17 Noroeste 36 Oeste 0 -- -- 85
2019-12-03 04:00:00 2.8 18 Oeste 41 Oeste 0 -- -- 85
2019-12-03 03:00:00 3.5 30 Oeste 45 Oeste 0 -- -- 84
2019-12-03 02:00:00 3.6 30 Oeste 46 Oeste 0 -- -- 82
2019-12-03 01:00:00 3.5 28 Oeste 47 Oeste 0 -- -- 80
2019-12-03 00:00:00 3.8 33 Oeste 51 Oeste 0 -- -- 76
2019-12-02 23:00:00 4.2 35 Oeste 55 Oeste 0 -- -- 77
2019-12-02 22:00:00 4.7 35 Oeste 58 Oeste 0 -- -- 77
2019-12-02 21:00:00 5.3 38 Oeste 55 Oeste 0 -- -- 76
2019-12-02 20:00:00 5.9 37 Oeste 51 Oeste 0 -- -- 77
2019-12-02 19:00:00 6.7 33 Oeste 46 Noroeste 0 -- -- 77
2019-12-02 18:00:00 7.3 28 Oeste 44 Oeste 0 -- -- 76
2019-12-02 17:00:00 8.4 21 Oeste 32 Noroeste 0 -- -- 74
2019-12-02 16:00:00 10.2 20 Noroeste 34 Noroeste 0 -- -- 68
2019-12-02 15:00:00 10.6 19 Noroeste 31 Noroeste 0 -- -- 69
2019-12-02 14:00:00 10.9 18 Noroeste 28 Oeste 0 -- -- 67
2019-12-02 13:00:00 10.5 17 Oeste 29 Noroeste 0 -- -- 66
2019-12-02 12:00:00 9.7 18 Oeste 31 Oeste 0 -- -- 70
2019-12-02 11:00:00 8 23 Oeste 35 Oeste 0 -- -- 78
2019-12-02 10:00:00 7.2 12 Oeste 19 Oeste 0 -- -- 82
2019-12-02 09:00:00 5.1 4 Este 16 Oeste 0 -- -- 90
2019-12-02 08:00:00 4.1 3 Norte 15 Noroeste 0 -- -- 93
2019-12-02 07:00:00 4.9 0 Calma 11 Norte 0 -- -- 92
2019-12-02 06:00:00 5.2 2 Norte 15 Sudoeste 0 -- -- 92
2019-12-02 05:00:00 5.5 3 Nordeste 30 Sudoeste 0 -- -- 90
2019-12-02 04:00:00 5.8 15 Oeste 24 Oeste 0 -- -- 90
2019-12-02 03:00:00 6 12 Oeste 17 Noroeste 0 -- -- 88
2019-12-02 02:00:00 6.4 4 Noroeste 25 Oeste 0 -- -- 87
2019-12-02 01:00:00 6.6 12 Oeste 29 Oeste 0 -- -- 87
2019-12-02 00:00:00 7 19 Oeste 31 Oeste 0 -- -- 87
2019-12-01 23:00:00 6.8 18 Oeste 27 Oeste 0 -- -- 87
2019-12-01 22:00:00 6.4 16 Oeste 25 Oeste 0 -- -- 88
2019-12-01 21:00:00 6.2 7 Oeste 19 Oeste 0 -- -- 88
2019-12-01 20:00:00 4.4 2 Sur 9 Sudeste 0 -- -- 89
2019-12-01 19:00:00 4.9 0 Calma 6 Oeste 0 -- -- 87
2019-12-01 18:00:00 6.3 4 Sudeste 9 Noroeste 0 -- -- 81
2019-12-01 17:00:00 8.9 8 Noroeste 18 Noroeste 0 -- -- 71
2019-12-01 16:00:00 11.7 12 Oeste 26 Oeste 0 -- -- 59
2019-12-01 15:00:00 11.7 13 Oeste 24 Noroeste 0 -- -- 58
2019-12-01 14:00:00 11.9 14 Oeste 22 Oeste 0 -- -- 54
2019-12-01 13:00:00 11.8 11 Oeste 21 Oeste 0 -- -- 56
2019-12-01 12:00:00 11 13 Sudoeste 21 Sudoeste 0 -- -- 59
2019-12-01 11:00:00 9.8 11 Sudoeste 33 Sudoeste 0 -- -- 67
2019-12-01 10:00:00 8.4 21 Sudoeste 33 Sudoeste 0 -- -- 72
2019-12-01 09:00:00 7.4 22 Sudoeste 34 Sudoeste 0 -- -- 75
2019-12-01 08:00:00 6.6 17 Sudoeste 30 Sudoeste 0 -- -- 77
2019-12-01 07:00:00 6.3 16 Sudoeste 30 Sudoeste 0 -- -- 80
2019-12-01 06:00:00 7.1 21 Sudoeste 34 Sudoeste 0 -- -- 76
2019-12-01 05:00:00 7.1 23 Sudoeste 33 Sudoeste 0 -- -- 78
2019-12-01 04:00:00 6.9 22 Sudoeste 33 Sudoeste 0 -- -- 82
2019-12-01 03:00:00 6.7 9 Sudeste 22 Sur 0.2 -- -- 86
2019-12-01 02:00:00 7.2 8 Sur 20 Sur 0.2 -- -- 90
2019-12-01 01:00:00 7.6 8 Sudoeste 27 Oeste 1 -- -- 89
2019-12-01 00:00:00 8.6 14 Oeste 37 Sudoeste 0.2 -- -- 80
2019-11-30 23:00:00 9.5 17 Sudoeste 40 Sudoeste 0.4 -- -- 79
2019-11-30 22:00:00 8.8 17 Oeste 27 Oeste 0 -- -- 93
2019-11-30 21:00:00 9 27 Noroeste 44 Oeste 0.6 -- -- 92
2019-11-30 20:00:00 15 16 Sudoeste 36 Sudoeste 0 -- -- 61
2019-11-30 19:00:00 15.5 23 Sudoeste 45 Sur 0 -- -- 58
2019-11-30 18:00:00 15.9 28 Sudoeste 48 Sur 0 -- -- 54
2019-11-30 17:00:00 16.2 5 Sudeste 38 Sudoeste 0 -- -- 55
2019-11-30 16:00:00 18.3 15 Sur 38 Sur 0 -- -- 52
2019-11-30 15:00:00 18.7 17 Sudoeste 30 Oeste 0 -- -- 52
2019-11-30 14:00:00 17.6 13 Oeste 25 Sudoeste 0 -- -- 57
2019-11-30 13:00:00 17.6 4 Oeste 24 Sur 0 -- -- 58
2019-11-30 12:00:00 17.7 6 Sur 26 Sudeste 0 -- -- 58
2019-11-30 11:00:00 16.2 8 Sudeste 19 Sudeste 0 -- -- 64
2019-11-30 10:00:00 12.4 11 Sudeste 18 Sudeste 0 -- -- 78
2019-11-30 09:00:00 11.8 8 Sudeste 18 Sudeste 0 -- -- 81
2019-11-30 08:00:00 10.4 8 Sur 16 Sur 0 -- -- 86
2019-11-30 07:00:00 10.7 8 Sur 14 Sur 0 -- -- 86
2019-11-30 06:00:00 10.7 4 Sudeste 13 Sur 0 -- -- 86
2019-11-30 05:00:00 9 3 Sur 10 Sudeste 0 -- -- 92
2019-11-30 04:00:00 9 5 Sudeste 10 Sudeste 0 -- -- 92
2019-11-30 03:00:00 8.5 6 Sudeste 9 Sudeste 0 -- -- 92
2019-11-30 02:00:00 8 5 Sur 12 Sudeste 0 -- -- 91
2019-11-30 01:00:00 7.1 4 Sudeste 12 Sudeste 0 -- -- 91
2019-11-30 00:00:00 6.6 9 Sudeste 12 Sudeste 0 -- -- 90
2019-11-29 23:00:00 6.6 9 Sudeste 13 Sudeste 0 -- -- 92
2019-11-29 22:00:00 6.8 9 Sudeste 13 Sudeste 0 -- -- 92
2019-11-29 21:00:00 7.9 10 Sudeste 13 Sudeste 0 -- -- 89
2019-11-29 20:00:00 9 6 Sudeste 10 Sudeste 0 -- -- 86
2019-11-29 19:00:00 9.1 5 Sudeste 13 Sudoeste 0 -- -- 85
2019-11-29 18:00:00 10.6 8 Oeste 14 Oeste 0 -- -- 80
2019-11-29 17:00:00 12.8 12 Noroeste 24 Oeste 0 -- -- 71
2019-11-29 16:00:00 14.6 14 Noroeste 27 Noroeste 0 -- -- 64
2019-11-29 15:00:00 14.2 13 Noroeste 28 Oeste 0 -- -- 67
2019-11-29 14:00:00 14.7 19 Noroeste 28 Noroeste 0 -- -- 65
2019-11-29 13:00:00 15.2 18 Noroeste 29 Noroeste 0 -- -- 62
2019-11-29 12:00:00 14.8 12 Noroeste 24 Noroeste 0 -- -- 69
2019-11-29 11:00:00 13.2 15 Oeste 21 Oeste 0 -- -- 79
2019-11-29 10:00:00 12.5 16 Oeste 27 Oeste 0 -- -- 81
2019-11-29 09:00:00 12.4 9 Noroeste 24 Oeste 0 -- -- 79
2019-11-29 08:00:00 12 15 Oeste 22 Oeste 0 -- -- 81
2019-11-29 07:00:00 12.8 17 Oeste 35 Sudoeste 0 -- -- 75
2019-11-29 06:00:00 13.2 25 Oeste 40 Sudoeste 0 -- -- 73
2019-11-29 05:00:00 13.3 26 Oeste 41 Oeste 0 -- -- 72
2019-11-29 04:00:00 13.1 12 Oeste 26 Sudoeste 0 -- -- 72
2019-11-29 03:00:00 12.8 12 Sudoeste 23 Sudoeste 0 -- -- 71
2019-11-29 02:00:00 12.8 7 Sudoeste 27 Sudoeste 0 -- -- 70
2019-11-29 01:00:00 12.3 14 Sudoeste 29 Sudoeste 0 -- -- 71
2019-11-29 00:00:00 12.7 10 Sudoeste 41 Sudoeste 0 -- -- 69
2019-11-28 23:00:00 12.6 19 Sudoeste 35 Sudoeste 0 -- -- 70
2019-11-28 22:00:00 12.4 20 Sudoeste 34 Sudoeste 0 -- -- 68
2019-11-28 21:00:00 12 20 Sudoeste 37 Sudoeste 0.2 -- -- 71
2019-11-28 20:00:00 12.9 23 Sudoeste 41 Sur 0 -- -- 63
2019-11-28 19:00:00 12.8 20 Sudoeste 36 Sudoeste 0 -- -- 63
2019-11-28 18:00:00 13.2 24 Sudoeste 41 Sudoeste 0 -- -- 61
2019-11-28 17:00:00 14 22 Sudoeste 39 Sudoeste 0 -- -- 59
2019-11-28 16:00:00 14.7 12 Sudoeste 35 Sudoeste 0 -- -- 56
2019-11-28 15:00:00 15.6 24 Sudoeste 41 Sudoeste 0 -- -- 52
2019-11-28 14:00:00 16.3 26 Oeste 56 Oeste 0 -- -- 50
2019-11-28 13:00:00 15.8 31 Oeste 52 Oeste 0 -- -- 54
2019-11-28 12:00:00 15.1 27 Oeste 48 Oeste 0 -- -- 57
2019-11-28 11:00:00 14.8 21 Oeste 43 Sudoeste 0 -- -- 56
2019-11-28 10:00:00 13 22 Oeste 47 Oeste 0 -- -- 62
2019-11-28 09:00:00 12.1 24 Oeste 44 Sudoeste 0 -- -- 64
2019-11-28 08:00:00 11.9 28 Oeste 48 Oeste 0 -- -- 63
2019-11-28 07:00:00 11.8 29 Oeste 48 Sudoeste 0 -- -- 64
2019-11-28 06:00:00 11.4 24 Oeste 40 Sudoeste 0 -- -- 66
2019-11-28 05:00:00 11.4 22 Oeste 44 Oeste 0 -- -- 66
2019-11-28 04:00:00 11.7 28 Oeste 48 Oeste 0 -- -- 65
2019-11-28 03:00:00 11.9 27 Oeste 46 Sudoeste 0 -- -- 64
2019-11-28 02:00:00 11.1 11 Oeste 39 Sudoeste 0 -- -- 67
2019-11-28 01:00:00 12 27 Oeste 41 Oeste 0 -- -- 63
2019-11-28 00:00:00 11.5 15 Sudoeste 39 Sudoeste 0 -- -- 65
2019-11-27 23:00:00 11.9 15 Sudoeste 30 Sudoeste 0 -- -- 63
2019-11-27 22:00:00 11.5 8 Sudeste 26 Sudoeste 0 -- -- 66
2019-11-27 21:00:00 12.4 16 Sudoeste 29 Sur 0 -- -- 60
2019-11-27 20:00:00 13 18 Sudoeste 35 Sudoeste 0 -- -- 55
2019-11-27 19:00:00 13.4 17 Sudoeste 30 Sudoeste 0 -- -- 53
2019-11-27 18:00:00 13 4 Sudoeste 21 Sudoeste 0 -- -- 54
2019-11-27 17:00:00 14 15 Oeste 38 Oeste 0 -- -- 50
2019-11-27 16:00:00 14.6 23 Sudoeste 40 Sudoeste 0 -- -- 48
2019-11-27 15:00:00 15.1 27 Oeste 58 Oeste 0 -- -- 46
2019-11-27 14:00:00 14.7 29 Oeste 58 Oeste 0 -- -- 47
2019-11-27 06:00:00 -- -- -- -- -- -- -- -- --
2019-11-27 05:00:00 12.2 17 Noroeste 41 Oeste 0 -- -- 68
2019-11-27 04:00:00 13.9 25 Oeste 46 Sudoeste 0 -- -- 66
2019-11-27 03:00:00 14.7 30 Oeste 51 Sudoeste 0 -- -- 58
2019-11-27 02:00:00 15 15 Sudoeste 40 Sudoeste 0 -- -- 59
2019-11-27 01:00:00 15.8 14 Sudoeste 30 Sur 0 -- -- 57
2019-11-27 00:00:00 15.3 6 Sur 32 Sudoeste 0 -- -- 68
2019-11-26 23:00:00 16 10 Sur 17 Sur 0 -- -- 64
2019-11-26 22:00:00 16.2 8 Sur 43 Sur 0 -- -- 62
2019-11-26 21:00:00 16.1 21 Sudoeste 39 Sudoeste 0 -- -- 62
2019-11-26 20:00:00 14.1 3 Sudeste 14 Sur 0 -- -- 71
2019-11-26 19:00:00 15.6 9 Sudeste 41 Sudoeste 0 -- -- 62
2019-11-26 18:00:00 16.3 22 Sudoeste 44 Sudoeste 0 -- -- 59
2019-11-26 17:00:00 16.8 4 Sudeste 22 Sudeste 0 -- -- 60
2019-11-26 16:00:00 18.7 8 Oeste 22 Sudoeste 0 -- -- 55
2019-11-26 15:00:00 18.7 10 Sudoeste 20 Sudoeste 0 -- -- 54
2019-11-26 14:00:00 18.9 10 Sur 27 Sudoeste 0 -- -- 52
2019-11-26 13:00:00 17.5 12 Sudoeste 24 Sudoeste 0 -- -- 57
2019-11-26 12:00:00 15.7 17 Sudoeste 27 Sur 0 -- -- 59
2019-11-26 11:00:00 15.2 8 Sur 22 Sur 0 -- -- 60
2019-11-26 10:00:00 13.2 7 Sudeste 22 Oeste 0 -- -- 67
2019-11-26 09:00:00 11.5 6 Sudoeste 19 Sudeste 0 -- -- 72
2019-11-26 08:00:00 10.9 8 Sur 21 Sudoeste 0 -- -- 75
2019-11-26 07:00:00 11.5 10 Sur 43 Oeste 0 -- -- 72
2019-11-26 06:00:00 11.9 20 Oeste 39 Sudoeste 0 -- -- 71
2019-11-26 05:00:00 12.4 19 Oeste 37 Sudoeste 0 -- -- 70
2019-11-26 04:00:00 12.2 20 Sudoeste 42 Oeste 0 -- -- 68
2019-11-26 03:00:00 12.4 23 Oeste 45 Sudoeste 0 -- -- 68
2019-11-26 02:00:00 12.6 21 Oeste 38 Sudoeste 0 -- -- 67
2019-11-26 01:00:00 12.3 15 Oeste 28 Oeste 0 -- -- 68
2019-11-26 00:00:00 12.5 18 Oeste 30 Sudoeste 0 -- -- 68
2019-11-25 23:00:00 12.3 6 Oeste 24 Oeste 0 -- -- 68
2019-11-25 22:00:00 10 4 Sur 15 Sudoeste 0 -- -- 82
2019-11-25 21:00:00 8.5 6 Sudeste 10 Sudeste 0 -- -- 88
2019-11-25 20:00:00 9 6 Sudeste 10 Sudoeste 0 -- -- 88
2019-11-25 19:00:00 10.2 0 Calma 8 Oeste 0 -- -- 84
2019-11-25 18:00:00 12.4 0 Calma 18 Sudoeste 0 -- -- 76
2019-11-25 17:00:00 14.3 13 Oeste 29 Oeste 0 -- -- 65
2019-11-25 16:00:00 15.2 21 Oeste 35 Sudoeste 0 -- -- 63
2019-11-25 15:00:00 15.6 21 Oeste 37 Oeste 0 -- -- 62
2019-11-25 14:00:00 16.2 24 Oeste 40 Oeste 0 -- -- 60
2019-11-25 13:00:00 15.4 30 Oeste 42 Oeste 0 -- -- 61
2019-11-25 12:00:00 14.5 34 Oeste 53 Sudoeste 0 -- -- 64
2019-11-25 11:00:00 13.9 31 Oeste 53 Oeste 0.2 -- -- 67
2019-11-25 10:00:00 13 29 Oeste 48 Sudoeste 0 -- -- 70
2019-11-25 09:00:00 11.7 21 Oeste 37 Noroeste 0 -- -- 74
2019-11-25 08:00:00 10.4 17 Sudoeste 32 Oeste 0 -- -- 78
2019-11-25 07:00:00 9.7 10 Oeste 27 Sudoeste 0 -- -- 80
2019-11-25 06:00:00 9.3 12 Sudoeste 23 Sudoeste 0 -- -- 80
2019-11-25 05:00:00 8.7 15 Sudoeste 37 Sudoeste 0 -- -- 80
2019-11-25 04:00:00 7.9 23 Oeste 42 Sudoeste 0.2 -- -- 83
2019-11-25 03:00:00 8.9 19 Sudoeste 33 Sur 0 -- -- 72
2019-11-25 02:00:00 8.8 17 Sudoeste 40 Oeste 0 -- -- 71
2019-11-25 01:00:00 7.9 18 Sudoeste 41 Sudoeste 0.4 -- -- 77
2019-11-25 00:00:00 9.1 19 Oeste 38 Sudoeste 0 -- -- 70
2019-11-24 23:00:00 9.5 19 Sudoeste 39 Oeste 0 -- -- 62
2019-11-24 22:00:00 9.6 32 Oeste 50 Oeste 0 -- -- 62
2019-11-24 21:00:00 8.7 26 Oeste 40 Sudoeste 0 -- -- 64
2019-11-24 20:00:00 8.7 27 Sudoeste 42 Sudoeste 0 -- -- 61
2019-11-24 19:00:00 8.5 26 Oeste 40 Sudoeste 0 -- -- 65
2019-11-24 18:00:00 8.5 12 Sudoeste 36 Sudoeste 0 -- -- 66
2019-11-24 17:00:00 9.5 24 Oeste 46 Sudoeste 0 -- -- 62
2019-11-24 16:00:00 10 31 Oeste 52 Sudoeste 0 -- -- 62
2019-11-24 15:00:00 10.6 33 Oeste 48 Sudoeste 0 -- -- 60
2019-11-24 14:00:00 10.6 28 Oeste 48 Sudoeste 0 -- -- 58
2019-11-24 13:00:00 10.1 30 Oeste 46 Sudoeste 0 -- -- 60
2019-11-24 12:00:00 10.1 28 Oeste 39 Oeste 0 -- -- 59
2019-11-24 11:00:00 9.4 24 Oeste 39 Sudoeste 0 -- -- 59
2019-11-24 10:00:00 7.8 19 Oeste 30 Sudoeste 0 -- -- 66
2019-11-24 09:00:00 6.2 18 Oeste 30 Oeste 0 -- -- 72
2019-11-24 08:00:00 4.9 14 Oeste 32 Oeste 0 -- -- 79
2019-11-24 07:00:00 5.5 16 Oeste 24 Oeste 0 -- -- 77
2019-11-24 06:00:00 5.4 13 Oeste 27 Sudoeste 0 -- -- 78
2019-11-24 05:00:00 6 9 Oeste 30 Oeste 0 -- -- 75
2019-11-24 04:00:00 6.7 18 Oeste 31 Oeste 0 -- -- 73
2019-11-24 03:00:00 7 19 Oeste 34 Noroeste 0 -- -- 73
2019-11-24 02:00:00 7.6 22 Oeste 41 Oeste 0 -- -- 70
2019-11-24 01:00:00 7.1 10 Oeste 41 Oeste 0 -- -- 72
2019-11-24 00:00:00 7.9 23 Oeste 43 Oeste 0 -- -- 67
2019-11-23 23:00:00 7.6 19 Oeste 45 Noroeste 0 -- -- 68
2019-11-23 22:00:00 7.7 26 Oeste 38 Noroeste 0 -- -- 68
2019-11-23 21:00:00 7.9 22 Noroeste 36 Noroeste 0 -- -- 68
2019-11-23 20:00:00 7.5 21 Noroeste 37 Noroeste 0 -- -- 70
2019-11-23 19:00:00 8.6 23 Noroeste 41 Noroeste 0 -- -- 63
2019-11-23 18:00:00 8.8 28 Noroeste 49 Oeste 0 -- -- 63
2019-11-23 17:00:00 9 31 Noroeste 48 Oeste 0 -- -- 65
2019-11-23 16:00:00 10.8 32 Oeste 53 Oeste 0 -- -- 57
2019-11-23 15:00:00 10.7 30 Oeste 46 Noroeste 0 -- -- 61
2019-11-23 14:00:00 9.9 24 Oeste 48 Oeste 0 -- -- 61
2019-11-23 13:00:00 8.8 34 Oeste 61 Sudoeste 0 -- -- 65
2019-11-23 12:00:00 8.3 38 Oeste 53 Sudoeste 0 -- -- 71
2019-11-23 11:00:00 8.1 26 Oeste 47 Oeste 0 -- -- 74
2019-11-23 10:00:00 8 27 Oeste 49 Oeste 0 -- -- 79
2019-11-23 09:00:00 6.7 19 Oeste 54 Oeste 1.8 -- -- 85
2019-11-23 08:00:00 6.7 37 Oeste 64 Oeste 0 -- -- 82
2019-11-23 07:00:00 8.2 26 Sudoeste 53 Oeste 0 -- -- 70
2019-11-23 06:00:00 8.5 26 Sudoeste 48 Oeste 0 -- -- 69
2019-11-23 05:00:00 8.6 20 Oeste 38 Sudoeste 0.2 -- -- 70
2019-11-23 04:00:00 8.6 13 Sudoeste 47 Sudoeste 0 -- -- 73
2019-11-23 03:00:00 8.4 28 Sudoeste 57 Sudoeste 0.2 -- -- 78
2019-11-23 02:00:00 9.2 11 Sudoeste 21 Sur 0 -- -- 79
2019-11-23 01:00:00 9.8 13 Sur 28 Sudoeste 0 -- -- 74
2019-11-23 00:00:00 8.2 2 Sudeste 24 Sudoeste 0 -- -- 84
2019-11-22 23:00:00 8.9 15 Sur 36 Sudoeste 0.8 -- -- 84
2019-11-22 22:00:00 9.1 26 Oeste 52 Oeste 0.6 -- -- 88
2019-11-22 21:00:00 8.8 5 Sur 18 Sudeste 0.2 -- -- 95
2019-11-22 20:00:00 8.5 11 Sudeste 25 Sudeste 0 -- -- 95
2019-11-22 19:00:00 9 13 Este 30 Este 0 -- -- 93
2019-11-22 18:00:00 8.9 6 Sudeste 17 Sudeste 0.2 -- -- 95
2019-11-22 17:00:00 8.2 6 Sur 17 Sur 1.2 -- -- 95
2019-11-22 16:00:00 8.1 9 Sudeste 23 Este 0 -- -- 91
2019-11-22 15:00:00 7.9 7 Sudeste 24 Sudeste 0 -- -- 87
2019-11-22 14:00:00 8 12 Sudeste 24 Sudeste 0 -- -- 83
2019-11-22 13:00:00 7.2 10 Sudeste 30 Este 0 -- -- 84
2019-11-22 12:00:00 7.1 17 Sudeste 27 Sudeste 0 -- -- 83
2019-11-22 11:00:00 5.8 9 Sur 18 Sur 0 -- -- 92
2019-11-22 10:00:00 5.9 9 Sudeste 23 Este 0 -- -- 91
2019-11-22 09:00:00 5.9 9 Sur 16 Sur 0 -- -- 87
2019-11-22 08:00:00 6.4 8 Sudeste 17 Sur 0 -- -- 81
2019-11-22 07:00:00 7.1 8 Sur 16 Sudeste 0 -- -- 78
2019-11-22 06:00:00 6.8 8 Sudeste 17 Sudeste 0 -- -- 80
2019-11-22 05:00:00 4 5 Sudeste 12 Sudeste 0 -- -- 89
2019-11-22 04:00:00 4.7 6 Sur 11 Sur 0 -- -- 86
2019-11-22 03:00:00 4.4 2 Sur 11 Sur 0 -- -- 87
2019-11-22 02:00:00 4.5 3 Sur 15 Sudeste 0 -- -- 86
2019-11-22 01:00:00 7.3 8 Sur 15 Sudoeste 0 -- -- 75
2019-11-22 00:00:00 8.6 12 Sudoeste 16 Sudoeste 0 -- -- 72
2019-11-21 23:00:00 6.7 4 Sudeste 10 Sur 0 -- -- 81
2019-11-21 22:00:00 7.2 4 Sur 12 Sur 0 -- -- 75
2019-11-21 21:00:00 6.5 5 Sur 10 Sur 0 -- -- 78
2019-11-21 20:00:00 6.9 7 Sudeste 11 Sudeste 0 -- -- 83
2019-11-21 19:00:00 7.1 3 Sudoeste 15 Sur 0 -- -- 83
2019-11-21 18:00:00 7 5 Sudeste 14 Este 0 -- -- 84
2019-11-21 17:00:00 9.2 6 Este 15 Este 0 -- -- 76
2019-11-21 16:00:00 10.1 6 Noroeste 8 Noroeste 0 -- -- 71
2019-11-21 15:00:00 11.1 4 Sudeste 9 Sur 0 -- -- 62
2019-11-21 14:00:00 11.5 5 Sur 18 Sudoeste 0 -- -- 59
2019-11-21 13:00:00 11.2 12 Sudoeste 25 Sur 0 -- -- 60
2019-11-21 12:00:00 10.9 14 Sudoeste 30 Sudoeste 0 -- -- 59
2019-11-21 11:00:00 10 16 Sudoeste 27 Sudoeste 0 -- -- 62
2019-11-21 10:00:00 8.2 6 Sur 23 Sudoeste 0 -- -- 69
2019-11-21 09:00:00 7 16 Sur 28 Sudoeste 0 -- -- 71
2019-11-21 08:00:00 -- -- -- -- -- -- -- -- --
2019-11-21 07:00:00 -- -- -- -- -- -- -- -- --
2019-11-21 06:00:00 -- -- -- -- -- -- -- -- --
2019-11-21 05:00:00 -- -- -- -- -- -- -- -- --
2019-11-21 04:00:00 -- -- -- -- -- -- -- -- --
2019-11-21 03:00:00 -- -- -- -- -- -- -- -- --
2019-11-21 02:00:00 -- -- -- -- -- -- -- -- --
2019-11-21 01:00:00 -- -- -- -- -- -- -- -- --
2019-11-21 00:00:00 -- -- -- -- -- -- -- -- --
2019-11-20 23:00:00 -- -- -- -- -- -- -- -- --
2019-11-20 22:00:00 -- -- -- -- -- -- -- -- --
2019-11-20 21:00:00 -- -- -- -- -- -- -- -- --
2019-11-20 20:00:00 -- -- -- -- -- -- -- -- --
2019-11-20 19:00:00 7.1 5 Sudeste 17 Sudeste 0 -- -- 71
2019-11-20 18:00:00 7.2 6 Sudeste 11 Sudeste 0 -- -- 68
2019-11-20 17:00:00 7.5 6 Sudeste 19 Este 0 -- -- 68
2019-11-20 16:00:00 8.6 13 Este 22 Sudeste 0 -- -- 64
2019-11-20 15:00:00 8.7 13 Este 20 Este 0 -- -- 64
2019-11-20 14:00:00 8.8 8 Sudeste 18 Este 0 -- -- 63
2019-11-20 13:00:00 9.6 14 Este 19 Este 0 -- -- 60
2019-11-20 12:00:00 10.3 8 Norte 14 Norte 0 -- -- 61
2019-11-20 11:00:00 9.9 5 Sur 10 Sur 0 -- -- 54
2019-11-20 10:00:00 6.3 5 Sudeste 8 Sudeste 0 -- -- 73
2019-11-20 09:00:00 4.5 3 Sudeste 7 Sudeste 0 -- -- 76
2019-11-20 08:00:00 2.4 4 Sudeste 10 Sur 0 -- -- 83
2019-11-20 07:00:00 2.6 4 Sur 12 Sudeste 0 -- -- 82
2019-11-20 06:00:00 3.6 4 Sudeste 9 Sudeste 0 -- -- 79
2019-11-20 05:00:00 4.8 5 Sudoeste 15 Este 0 -- -- 74
2019-11-20 04:00:00 3.7 3 Sudoeste 15 Este 0 -- -- 80
2019-11-20 03:00:00 3.6 8 Sudeste 13 Este 0 -- -- 79
2019-11-20 02:00:00 3.3 8 Sudeste 11 Sudeste 0 -- -- 81
2019-11-20 01:00:00 2.1 7 Sudeste 12 Sudeste 0 -- -- 86
2019-11-20 00:00:00 1.7 9 Sudeste 14 Sudeste 0 -- -- 89
2019-11-19 23:00:00 2 6 Sudeste 14 Sudeste 0 -- -- 90
2019-11-19 22:00:00 2.4 10 Sudeste 13 Sudeste 0 -- -- 88
2019-11-19 21:00:00 2.3 11 Sudeste 14 Sudeste 0 -- -- 89
2019-11-19 20:00:00 2.4 10 Sudeste 13 Sudeste 0 -- -- 89
2019-11-19 19:00:00 2.6 3 Sur 13 Sudeste 0 -- -- 87
2019-11-19 18:00:00 4.7 4 Sudeste 6 Noroeste 0 -- -- 80
2019-11-19 17:00:00 8.2 4 Noroeste 17 Noroeste 0 -- -- 61
2019-11-19 16:00:00 9.9 13 Oeste 21 Noroeste 0 -- -- 54
2019-11-19 15:00:00 9.6 15 Oeste 29 Noroeste 0 -- -- 55
2019-11-19 14:00:00 10.2 17 Oeste 35 Sudoeste 0 -- -- 55
2019-11-19 13:00:00 8.9 23 Oeste 37 Oeste 0 -- -- 58
2019-11-19 12:00:00 8.3 24 Oeste 44 Noroeste 0 -- -- 61
2019-11-19 11:00:00 7.9 19 Oeste 36 Oeste 0 -- -- 62
2019-11-19 10:00:00 6.2 21 Oeste 33 Oeste 0 -- -- 66
2019-11-19 09:00:00 4.8 18 Oeste 41 Oeste 0 -- -- 72
2019-11-19 08:00:00 4.6 33 Oeste 54 Oeste 0 -- -- 76
2019-11-19 07:00:00 4.3 27 Oeste 48 Oeste 0 -- -- 80
2019-11-19 06:00:00 4.4 25 Oeste 48 Oeste 0 -- -- 79
2019-11-19 05:00:00 3.8 5 Sudoeste 40 Oeste 0 -- -- 80
2019-11-19 04:00:00 4.5 25 Oeste 50 Oeste 0 -- -- 76
2019-11-19 03:00:00 4.3 15 Oeste 35 Sudoeste 0 -- -- 77
2019-11-19 02:00:00 4.4 14 Oeste 48 Noroeste 0 -- -- 78
2019-11-19 01:00:00 4.3 24 Oeste 44 Sudoeste 0 -- -- 78
2019-11-19 00:00:00 4.4 24 Oeste 42 Oeste 0 -- -- 78
2019-11-18 23:00:00 4.3 28 Oeste 57 Oeste 0 -- -- 80
2019-11-18 22:00:00 4.4 19 Oeste 47 Oeste 0 -- -- 76
2019-11-18 21:00:00 4.6 28 Oeste 54 Oeste 0 -- -- 73
2019-11-18 20:00:00 4.6 30 Oeste 54 Oeste 0 -- -- 72
2019-11-18 19:00:00 4.7 36 Oeste 70 Noroeste 0 -- -- 71
2019-11-18 18:00:00 5.4 33 Oeste 58 Noroeste 0 -- -- 68
2019-11-18 17:00:00 6.1 35 Oeste 53 Oeste 0 -- -- 69
2019-11-18 16:00:00 6.9 33 Oeste 57 Noroeste 0 -- -- 64
2019-11-18 15:00:00 7.7 32 Noroeste 58 Noroeste 0 -- -- 64
2019-11-18 14:00:00 7.8 32 Noroeste 57 Oeste 0 -- -- 67
2019-11-18 13:00:00 7.7 38 Oeste 63 Oeste 0 -- -- 66
2019-11-18 12:00:00 7.4 37 Noroeste 66 Noroeste 0 -- -- 71
2019-11-18 11:00:00 6.4 40 Noroeste 55 Oeste 0 -- -- 79
2019-11-18 10:00:00 6.1 22 Oeste 57 Noroeste 0 -- -- 76
2019-11-18 09:00:00 5 36 Oeste 59 Oeste 0 -- -- 81
2019-11-18 08:00:00 4.7 39 Oeste 55 Oeste 0 -- -- 84
2019-11-18 07:00:00 4.8 34 Oeste 56 Oeste 0 -- -- 84
2019-11-18 06:00:00 5.2 41 Oeste 59 Oeste 0 -- -- 86
2019-11-18 05:00:00 5.3 30 Oeste 50 Oeste 0.2 -- -- 89
2019-11-18 04:00:00 4.9 15 Noroeste 26 Noroeste 0.4 -- -- 94
2019-11-18 03:00:00 5.2 19 Noroeste 34 Oeste 1.4 -- -- 96
2019-11-18 02:00:00 5.1 6 Sur 16 Oeste 0 -- -- 89
2019-11-18 01:00:00 4.9 9 Oeste 20 Oeste 0 -- -- 90
2019-11-18 00:00:00 6 13 Oeste 23 Oeste 0 -- -- 89
2019-11-17 23:00:00 6.7 15 Oeste 23 Oeste 0 -- -- 87
2019-11-17 22:00:00 5.7 3 Oeste 8 Sudeste 0 -- -- 93
2019-11-17 21:00:00 5.2 3 Oeste 6 Norte 0 -- -- 92
2019-11-17 20:00:00 6.3 3 Noroeste 17 Noroeste 0 -- -- 86
2019-11-17 19:00:00 6.3 8 Oeste 31 Sudoeste 0 -- -- 86
2019-11-17 18:00:00 6.9 19 Oeste 32 Sudoeste 0 -- -- 84
2019-11-17 17:00:00 6.9 20 Oeste 44 Oeste 1 -- -- 86
2019-11-17 16:00:00 7.7 26 Oeste 39 Oeste 0.8 -- -- 85
2019-11-17 15:00:00 10 23 Oeste 40 Oeste 0 -- -- 66
2019-11-17 14:00:00 11.1 10 Sudoeste 41 Oeste 0 -- -- 59
2019-11-17 13:00:00 9.9 24 Oeste 48 Sudoeste 0 -- -- 61
2019-11-17 12:00:00 9.8 28 Sudoeste 49 Sudoeste 0 -- -- 60
2019-11-17 11:00:00 8.5 25 Oeste 53 Oeste 0 -- -- 65
2019-11-17 10:00:00 7.2 30 Oeste 62 Sudoeste 0 -- -- 68
2019-11-17 09:00:00 5.7 21 Sudoeste 47 Oeste 0 -- -- 72
2019-11-17 08:00:00 5.4 24 Oeste 46 Sudoeste 0 -- -- 70
2019-11-17 07:00:00 4.8 19 Oeste 43 Oeste 0 -- -- 69
2019-11-17 06:00:00 4.9 28 Oeste 44 Oeste 0 -- -- 69
2019-11-17 05:00:00 4.8 29 Oeste 53 Sudoeste 0 -- -- 67
2019-11-17 04:00:00 4.8 22 Sudoeste 40 Sudoeste 0 -- -- 64
2019-11-17 03:00:00 5.1 26 Oeste 39 Oeste 0 -- -- 65
2019-11-17 02:00:00 5.4 27 Oeste 41 Sudoeste 0 -- -- 65
2019-11-17 01:00:00 5.5 19 Oeste 30 Sudoeste 0 -- -- 64
2019-11-17 00:00:00 5.8 22 Sudoeste 37 Sudoeste 0 -- -- 68
2019-11-16 23:00:00 6 21 Oeste 28 Sudoeste 0 -- -- 68
2019-11-16 22:00:00 6.4 12 Oeste 29 Sudoeste 0 -- -- 67
2019-11-16 21:00:00 6.8 21 Sudoeste 40 Sudoeste 0 -- -- 64
2019-11-16 20:00:00 6.6 26 Oeste 40 Oeste 0 -- -- 64
2019-11-16 19:00:00 6.7 23 Oeste 35 Oeste 0 -- -- 62
2019-11-16 18:00:00 6.7 20 Oeste 44 Oeste 0 -- -- 63
2019-11-16 17:00:00 6.9 26 Oeste 44 Oeste 0 -- -- 61
2019-11-16 16:00:00 7.7 22 Oeste 40 Oeste 0 -- -- 61
2019-11-16 15:00:00 8.4 18 Oeste 28 Oeste 0 -- -- 57
2019-11-16 14:00:00 9.3 17 Oeste 28 Oeste 0 -- -- 52
2019-11-16 13:00:00 8.7 16 Oeste 28 Oeste 0 -- -- 54
2019-11-16 12:00:00 8.1 12 Sudoeste 23 Oeste 0 -- -- 53
2019-11-16 11:00:00 7.5 10 Oeste 25 Sudoeste 0 -- -- 52
2019-11-16 10:00:00 6.4 5 Oeste 26 Sudoeste 0 -- -- 58
2019-11-16 09:00:00 3.9 16 Oeste 33 Oeste 0 -- -- 68
2019-11-16 08:00:00 2.5 15 Oeste 38 Oeste 0 -- -- 76
2019-11-16 07:00:00 2.3 16 Oeste 48 Oeste 0 -- -- 80
2019-11-16 06:00:00 3.2 35 Oeste 52 Oeste 0 -- -- 77
2019-11-16 05:00:00 2.8 28 Oeste 42 Oeste 0 -- -- 82
2019-11-16 04:00:00 2.9 22 Oeste 35 Noroeste 0 -- -- 83
2019-11-16 03:00:00 2.9 23 Oeste 41 Oeste 0 -- -- 84
2019-11-16 02:00:00 2.4 14 Oeste 25 Oeste 0 -- -- 87
2019-11-16 01:00:00 2.6 13 Oeste 34 Oeste 0 -- -- 87
2019-11-16 00:00:00 3.4 22 Oeste 33 Oeste 0 -- -- 85